sensor_id;sensor_type;location;lat;lon;timestamp;P1;durP1;ratioP1;P2;durP2;ratioP2
49812;SDS011;35706;52.100;5.056;2022-09-09T00:00:22;0.40;;;0.10;;
49812;SDS011;35706;52.100;5.056;2022-09-09T00:03:02;0.40;;;0.10;;
49812;SDS011;35706;52.100;5.056;2022-09-09T00:05:30;0.38;;;0.10;;
49812;SDS011;35706;52.100;5.056;2022-09-09T00:08:07;1.55;;;0.13;;
49812;SDS011;35706;52.100;5.056;2022-09-09T00:09:19;0.90;;;0.10;;
49812;SDS011;35706;52.100;5.056;2022-09-09T00:11:36;1.27;;;0.10;;
49812;SDS011;35706;52.100;5.056;2022-09-09T00:12:48;0.77;;;0.10;;
49812;SDS011;35706;52.100;5.056;2022-09-09T00:13:58;3.78;;;0.20;;
49812;SDS011;35706;52.100;5.056;2022-09-09T00:17:34;0.60;;;0.10;;
49812;SDS011;35706;52.100;5.056;2022-09-09T00:18:55;0.70;;;0.20;;
49812;SDS011;35706;52.100;5.056;2022-09-09T00:21:12;1.83;;;0.20;;
49812;SDS011;35706;52.100;5.056;2022-09-09T00:22:20;0.80;;;0.10;;
49812;SDS011;35706;52.100;5.056;2022-09-09T00:23:33;2.85;;;0.20;;
49812;SDS011;35706;52.100;5.056;2022-09-09T00:26:50;1.20;;;0.30;;
49812;SDS011;35706;52.100;5.056;2022-09-09T00:27:53;3.03;;;0.20;;
49812;SDS011;35706;52.100;5.056;2022-09-09T00:28:55;2.28;;;0.20;;
49812;SDS011;35706;52.100;5.056;2022-09-09T00:31:20;1.30;;;0.22;;
49812;SDS011;35706;52.100;5.056;2022-09-09T00:32:27;0.90;;;0.20;;
49812;SDS011;35706;52.100;5.056;2022-09-09T00:33:29;2.38;;;0.20;;
49812;SDS011;35706;52.100;5.056;2022-09-09T00:34:30;1.08;;;0.20;;
49812;SDS011;35706;52.100;5.056;2022-09-09T00:35:34;2.08;;;0.30;;
49812;SDS011;35706;52.100;5.056;2022-09-09T00:36:48;1.95;;;0.20;;
49812;SDS011;35706;52.100;5.056;2022-09-09T00:37:53;1.67;;;0.30;;
49812;SDS011;35706;52.100;5.056;2022-09-09T00:38:59;2.22;;;0.30;;
49812;SDS011;35706;52.100;5.056;2022-09-09T00:40:02;1.30;;;0.30;;
49812;SDS011;35706;52.100;5.056;2022-09-09T00:42:43;1.77;;;0.20;;
49812;SDS011;35706;52.100;5.056;2022-09-09T00:44:21;2.47;;;0.30;;
49812;SDS011;35706;52.100;5.056;2022-09-09T00:45:30;1.15;;;0.30;;
49812;SDS011;35706;52.100;5.056;2022-09-09T00:48:10;1.27;;;0.30;;
49812;SDS011;35706;52.100;5.056;2022-09-09T00:52:08;1.80;;;0.30;;
49812;SDS011;35706;52.100;5.056;2022-09-09T00:57:25;2.13;;;0.20;;
49812;SDS011;35706;52.100;5.056;2022-09-09T00:58:33;0.90;;;0.30;;
49812;SDS011;35706;52.100;5.056;2022-09-09T00:59:44;2.15;;;0.28;;
49812;SDS011;35706;52.100;5.056;2022-09-09T01:00:51;2.75;;;0.30;;
49812;SDS011;35706;52.100;5.056;2022-09-09T01:01:56;1.10;;;0.30;;
49812;SDS011;35706;52.100;5.056;2022-09-09T01:04:20;1.38;;;0.30;;
49812;SDS011;35706;52.100;5.056;2022-09-09T01:05:36;1.02;;;0.30;;
49812;SDS011;35706;52.100;5.056;2022-09-09T01:06:43;0.73;;;0.30;;
49812;SDS011;35706;52.100;5.056;2022-09-09T01:07:52;1.90;;;0.40;;
49812;SDS011;35706;52.100;5.056;2022-09-09T01:10:00;2.67;;;0.30;;
49812;SDS011;35706;52.100;5.056;2022-09-09T01:11:06;2.90;;;0.40;;
49812;SDS011;35706;52.100;5.056;2022-09-09T01:12:14;0.73;;;0.30;;
49812;SDS011;35706;52.100;5.056;2022-09-09T01:13:20;1.92;;;0.32;;
49812;SDS011;35706;52.100;5.056;2022-09-09T01:15:34;2.63;;;0.40;;
49812;SDS011;35706;52.100;5.056;2022-09-09T01:16:35;1.20;;;0.30;;
49812;SDS011;35706;52.100;5.056;2022-09-09T01:17:58;1.42;;;0.30;;
49812;SDS011;35706;52.100;5.056;2022-09-09T01:19:17;1.58;;;0.30;;
49812;SDS011;35706;52.100;5.056;2022-09-09T01:20:26;2.35;;;0.30;;
49812;SDS011;35706;52.100;5.056;2022-09-09T01:21:35;1.67;;;0.30;;
49812;SDS011;35706;52.100;5.056;2022-09-09T01:24:31;0.82;;;0.30;;
49812;SDS011;35706;52.100;5.056;2022-09-09T01:27:01;2.40;;;0.30;;
49812;SDS011;35706;52.100;5.056;2022-09-09T01:28:05;0.98;;;0.30;;
49812;SDS011;35706;52.100;5.056;2022-09-09T01:29:12;1.73;;;0.38;;
49812;SDS011;35706;52.100;5.056;2022-09-09T01:30:17;2.08;;;0.30;;
49812;SDS011;35706;52.100;5.056;2022-09-09T01:31:19;1.10;;;0.40;;
49812;SDS011;35706;52.100;5.056;2022-09-09T01:32:40;1.77;;;0.30;;
49812;SDS011;35706;52.100;5.056;2022-09-09T01:33:45;2.60;;;0.40;;
49812;SDS011;35706;52.100;5.056;2022-09-09T01:34:45;2.97;;;0.40;;
49812;SDS011;35706;52.100;5.056;2022-09-09T01:35:48;1.80;;;0.38;;
49812;SDS011;35706;52.100;5.056;2022-09-09T01:37:04;3.08;;;0.30;;
49812;SDS011;35706;52.100;5.056;2022-09-09T01:38:07;3.25;;;0.40;;
49812;SDS011;35706;52.100;5.056;2022-09-09T01:39:07;2.08;;;0.30;;
49812;SDS011;35706;52.100;5.056;2022-09-09T01:40:08;0.60;;;0.28;;
49812;SDS011;35706;52.100;5.056;2022-09-09T01:41:08;0.90;;;0.32;;
49812;SDS011;35706;52.100;5.056;2022-09-09T01:42:09;1.92;;;0.38;;
49812;SDS011;35706;52.100;5.056;2022-09-09T01:43:13;0.80;;;0.30;;
49812;SDS011;35706;52.100;5.056;2022-09-09T01:44:13;1.23;;;0.40;;
49812;SDS011;35706;52.100;5.056;2022-09-09T01:45:14;1.65;;;0.40;;
49812;SDS011;35706;52.100;5.056;2022-09-09T01:46:15;2.10;;;0.40;;
49812;SDS011;35706;52.100;5.056;2022-09-09T01:47:17;2.38;;;0.40;;
49812;SDS011;35706;52.100;5.056;2022-09-09T01:48:17;1.05;;;0.40;;
49812;SDS011;35706;52.100;5.056;2022-09-09T01:49:19;1.63;;;0.40;;
49812;SDS011;35706;52.100;5.056;2022-09-09T01:50:20;1.15;;;0.40;;
49812;SDS011;35706;52.100;5.056;2022-09-09T01:51:21;2.58;;;0.43;;
49812;SDS011;35706;52.100;5.056;2022-09-09T01:52:22;0.98;;;0.45;;
49812;SDS011;35706;52.100;5.056;2022-09-09T01:53:22;0.98;;;0.40;;
49812;SDS011;35706;52.100;5.056;2022-09-09T01:54:26;2.70;;;0.50;;
49812;SDS011;35706;52.100;5.056;2022-09-09T01:55:30;2.13;;;0.50;;
49812;SDS011;35706;52.100;5.056;2022-09-09T01:57:43;1.40;;;0.35;;
49812;SDS011;35706;52.100;5.056;2022-09-09T02:00:12;1.58;;;0.60;;
49812;SDS011;35706;52.100;5.056;2022-09-09T02:02:34;1.35;;;0.50;;
49812;SDS011;35706;52.100;5.056;2022-09-09T02:03:38;1.88;;;0.45;;
49812;SDS011;35706;52.100;5.056;2022-09-09T02:04:45;2.45;;;0.40;;
49812;SDS011;35706;52.100;5.056;2022-09-09T02:05:51;1.00;;;0.40;;
49812;SDS011;35706;52.100;5.056;2022-09-09T02:07:19;2.53;;;0.50;;
49812;SDS011;35706;52.100;5.056;2022-09-09T02:09:42;2.13;;;0.55;;
49812;SDS011;35706;52.100;5.056;2022-09-09T02:12:08;1.70;;;0.60;;
49812;SDS011;35706;52.100;5.056;2022-09-09T02:13:17;4.30;;;0.70;;
49812;SDS011;35706;52.100;5.056;2022-09-09T02:14:22;2.95;;;0.50;;
49812;SDS011;35706;52.100;5.056;2022-09-09T02:15:42;4.07;;;0.60;;
49812;SDS011;35706;52.100;5.056;2022-09-09T02:16:48;2.50;;;0.70;;
49812;SDS011;35706;52.100;5.056;2022-09-09T02:17:53;1.85;;;0.70;;
49812;SDS011;35706;52.100;5.056;2022-09-09T02:19:00;3.17;;;0.60;;
49812;SDS011;35706;52.100;5.056;2022-09-09T02:20:05;1.60;;;0.70;;
49812;SDS011;35706;52.100;5.056;2022-09-09T02:21:09;3.00;;;0.60;;
49812;SDS011;35706;52.100;5.056;2022-09-09T02:22:13;1.90;;;0.60;;
49812;SDS011;35706;52.100;5.056;2022-09-09T02:23:17;1.90;;;0.68;;
49812;SDS011;35706;52.100;5.056;2022-09-09T02:24:18;2.92;;;0.50;;
49812;SDS011;35706;52.100;5.056;2022-09-09T02:25:19;2.40;;;0.60;;
49812;SDS011;35706;52.100;5.056;2022-09-09T02:26:22;1.40;;;0.60;;
49812;SDS011;35706;52.100;5.056;2022-09-09T02:27:23;5.30;;;0.80;;
49812;SDS011;35706;52.100;5.056;2022-09-09T02:28:24;3.60;;;0.80;;
49812;SDS011;35706;52.100;5.056;2022-09-09T02:29:30;3.20;;;0.70;;
49812;SDS011;35706;52.100;5.056;2022-09-09T02:30:34;2.25;;;0.60;;
49812;SDS011;35706;52.100;5.056;2022-09-09T02:31:37;2.22;;;0.80;;
49812;SDS011;35706;52.100;5.056;2022-09-09T02:32:39;2.33;;;0.70;;
49812;SDS011;35706;52.100;5.056;2022-09-09T02:33:45;2.33;;;0.70;;
49812;SDS011;35706;52.100;5.056;2022-09-09T02:34:53;2.05;;;0.70;;
49812;SDS011;35706;52.100;5.056;2022-09-09T02:36:01;3.25;;;0.80;;
49812;SDS011;35706;52.100;5.056;2022-09-09T02:37:03;1.60;;;0.70;;
49812;SDS011;35706;52.100;5.056;2022-09-09T02:38:07;1.70;;;0.80;;
49812;SDS011;35706;52.100;5.056;2022-09-09T02:39:10;2.78;;;0.85;;
49812;SDS011;35706;52.100;5.056;2022-09-09T02:40:11;2.08;;;0.60;;
49812;SDS011;35706;52.100;5.056;2022-09-09T02:41:13;5.97;;;0.90;;
49812;SDS011;35706;52.100;5.056;2022-09-09T02:42:14;3.67;;;0.60;;
49812;SDS011;35706;52.100;5.056;2022-09-09T02:43:15;1.33;;;0.70;;
49812;SDS011;35706;52.100;5.056;2022-09-09T02:44:18;3.92;;;0.70;;
49812;SDS011;35706;52.100;5.056;2022-09-09T02:45:19;2.58;;;0.68;;
49812;SDS011;35706;52.100;5.056;2022-09-09T02:48:12;2.50;;;0.65;;
49812;SDS011;35706;52.100;5.056;2022-09-09T02:49:21;5.88;;;0.70;;
49812;SDS011;35706;52.100;5.056;2022-09-09T02:52:54;1.42;;;0.70;;
49812;SDS011;35706;52.100;5.056;2022-09-09T02:54:01;3.67;;;0.70;;
49812;SDS011;35706;52.100;5.056;2022-09-09T02:55:14;1.67;;;0.70;;
49812;SDS011;35706;52.100;5.056;2022-09-09T02:56:21;5.13;;;0.90;;
49812;SDS011;35706;52.100;5.056;2022-09-09T02:57:26;3.28;;;0.70;;
49812;SDS011;35706;52.100;5.056;2022-09-09T02:58:30;1.17;;;0.50;;
49812;SDS011;35706;52.100;5.056;2022-09-09T02:59:31;1.75;;;0.60;;
49812;SDS011;35706;52.100;5.056;2022-09-09T03:00:32;6.63;;;0.70;;
49812;SDS011;35706;52.100;5.056;2022-09-09T03:01:35;3.78;;;0.70;;
49812;SDS011;35706;52.100;5.056;2022-09-09T03:02:36;1.60;;;0.70;;
49812;SDS011;35706;52.100;5.056;2022-09-09T03:03:37;2.60;;;0.77;;
49812;SDS011;35706;52.100;5.056;2022-09-09T03:04:38;1.63;;;0.70;;
49812;SDS011;35706;52.100;5.056;2022-09-09T03:05:39;2.28;;;0.60;;
49812;SDS011;35706;52.100;5.056;2022-09-09T03:06:39;3.58;;;0.63;;
49812;SDS011;35706;52.100;5.056;2022-09-09T03:07:39;3.95;;;0.70;;
49812;SDS011;35706;52.100;5.056;2022-09-09T03:08:40;1.85;;;0.80;;
49812;SDS011;35706;52.100;5.056;2022-09-09T03:09:40;4.95;;;0.70;;
49812;SDS011;35706;52.100;5.056;2022-09-09T03:10:40;6.07;;;0.65;;
49812;SDS011;35706;52.100;5.056;2022-09-09T03:11:41;2.97;;;0.68;;
49812;SDS011;35706;52.100;5.056;2022-09-09T03:12:41;1.38;;;0.60;;
49812;SDS011;35706;52.100;5.056;2022-09-09T03:13:41;1.80;;;0.63;;
49812;SDS011;35706;52.100;5.056;2022-09-09T03:14:41;1.90;;;0.60;;
49812;SDS011;35706;52.100;5.056;2022-09-09T03:15:44;4.78;;;0.73;;
49812;SDS011;35706;52.100;5.056;2022-09-09T03:16:44;4.10;;;0.60;;
49812;SDS011;35706;52.100;5.056;2022-09-09T03:17:44;2.17;;;0.60;;
49812;SDS011;35706;52.100;5.056;2022-09-09T03:18:44;1.35;;;0.60;;
49812;SDS011;35706;52.100;5.056;2022-09-09T03:19:45;3.20;;;0.60;;
49812;SDS011;35706;52.100;5.056;2022-09-09T03:20:46;3.60;;;0.70;;
49812;SDS011;35706;52.100;5.056;2022-09-09T03:21:48;1.65;;;0.60;;
49812;SDS011;35706;52.100;5.056;2022-09-09T03:22:49;2.28;;;0.70;;
49812;SDS011;35706;52.100;5.056;2022-09-09T03:23:49;4.93;;;0.93;;
49812;SDS011;35706;52.100;5.056;2022-09-09T03:24:51;3.65;;;0.60;;
49812;SDS011;35706;52.100;5.056;2022-09-09T03:25:51;3.35;;;0.60;;
49812;SDS011;35706;52.100;5.056;2022-09-09T03:26:52;1.30;;;0.68;;
49812;SDS011;35706;52.100;5.056;2022-09-09T03:27:52;3.10;;;0.70;;
49812;SDS011;35706;52.100;5.056;2022-09-09T03:28:54;1.83;;;0.60;;
49812;SDS011;35706;52.100;5.056;2022-09-09T03:29:58;3.45;;;0.70;;
49812;SDS011;35706;52.100;5.056;2022-09-09T03:31:02;3.67;;;0.60;;
49812;SDS011;35706;52.100;5.056;2022-09-09T03:32:04;4.22;;;0.73;;
49812;SDS011;35706;52.100;5.056;2022-09-09T03:33:04;2.00;;;0.68;;
49812;SDS011;35706;52.100;5.056;2022-09-09T03:34:04;2.03;;;0.60;;
49812;SDS011;35706;52.100;5.056;2022-09-09T03:35:05;4.43;;;0.68;;
49812;SDS011;35706;52.100;5.056;2022-09-09T03:36:05;3.78;;;0.65;;
49812;SDS011;35706;52.100;5.056;2022-09-09T03:37:07;1.92;;;0.60;;
49812;SDS011;35706;52.100;5.056;2022-09-09T03:38:07;3.88;;;0.60;;
49812;SDS011;35706;52.100;5.056;2022-09-09T03:39:07;4.05;;;0.68;;
49812;SDS011;35706;52.100;5.056;2022-09-09T03:40:08;3.03;;;0.60;;
49812;SDS011;35706;52.100;5.056;2022-09-09T03:41:09;4.03;;;0.70;;
49812;SDS011;35706;52.100;5.056;2022-09-09T03:42:13;1.67;;;0.60;;
49812;SDS011;35706;52.100;5.056;2022-09-09T03:43:14;2.83;;;0.55;;
49812;SDS011;35706;52.100;5.056;2022-09-09T03:44:16;2.85;;;0.60;;
49812;SDS011;35706;52.100;5.056;2022-09-09T03:45:16;1.70;;;0.63;;
49812;SDS011;35706;52.100;5.056;2022-09-09T03:46:17;5.20;;;0.60;;
49812;SDS011;35706;52.100;5.056;2022-09-09T03:47:19;1.67;;;0.70;;
49812;SDS011;35706;52.100;5.056;2022-09-09T03:48:21;3.05;;;0.60;;
49812;SDS011;35706;52.100;5.056;2022-09-09T03:49:21;2.42;;;0.60;;
49812;SDS011;35706;52.100;5.056;2022-09-09T03:50:22;4.30;;;0.60;;
49812;SDS011;35706;52.100;5.056;2022-09-09T03:51:23;3.45;;;0.50;;
49812;SDS011;35706;52.100;5.056;2022-09-09T03:52:24;3.15;;;0.70;;
49812;SDS011;35706;52.100;5.056;2022-09-09T03:53:26;3.53;;;0.60;;
49812;SDS011;35706;52.100;5.056;2022-09-09T03:54:27;2.17;;;0.60;;
49812;SDS011;35706;52.100;5.056;2022-09-09T03:55:30;3.63;;;0.60;;
49812;SDS011;35706;52.100;5.056;2022-09-09T03:56:30;2.63;;;0.60;;
49812;SDS011;35706;52.100;5.056;2022-09-09T03:57:31;2.13;;;0.70;;
49812;SDS011;35706;52.100;5.056;2022-09-09T03:58:35;4.82;;;0.68;;
49812;SDS011;35706;52.100;5.056;2022-09-09T03:59:36;1.33;;;0.57;;
49812;SDS011;35706;52.100;5.056;2022-09-09T04:00:36;1.60;;;0.47;;
49812;SDS011;35706;52.100;5.056;2022-09-09T04:01:44;2.28;;;0.60;;
49812;SDS011;35706;52.100;5.056;2022-09-09T04:02:45;2.03;;;0.43;;
49812;SDS011;35706;52.100;5.056;2022-09-09T04:03:45;2.72;;;0.60;;
49812;SDS011;35706;52.100;5.056;2022-09-09T04:04:46;1.70;;;0.55;;
49812;SDS011;35706;52.100;5.056;2022-09-09T04:05:48;1.40;;;0.50;;
49812;SDS011;35706;52.100;5.056;2022-09-09T04:06:49;2.72;;;0.50;;
49812;SDS011;35706;52.100;5.056;2022-09-09T04:07:51;3.40;;;0.50;;
49812;SDS011;35706;52.100;5.056;2022-09-09T04:08:51;2.28;;;0.55;;
49812;SDS011;35706;52.100;5.056;2022-09-09T04:09:52;1.52;;;0.60;;
49812;SDS011;35706;52.100;5.056;2022-09-09T04:10:53;3.53;;;0.63;;
49812;SDS011;35706;52.100;5.056;2022-09-09T04:11:57;6.28;;;0.60;;
49812;SDS011;35706;52.100;5.056;2022-09-09T04:12:57;2.80;;;0.60;;
49812;SDS011;35706;52.100;5.056;2022-09-09T04:13:57;4.22;;;0.50;;
49812;SDS011;35706;52.100;5.056;2022-09-09T04:14:57;1.70;;;0.50;;
49812;SDS011;35706;52.100;5.056;2022-09-09T04:15:58;3.38;;;0.60;;
49812;SDS011;35706;52.100;5.056;2022-09-09T04:16:59;2.00;;;0.50;;
49812;SDS011;35706;52.100;5.056;2022-09-09T04:18:00;3.83;;;0.60;;
49812;SDS011;35706;52.100;5.056;2022-09-09T04:19:00;1.20;;;0.50;;
49812;SDS011;35706;52.100;5.056;2022-09-09T04:20:01;1.60;;;0.60;;
49812;SDS011;35706;52.100;5.056;2022-09-09T04:21:02;2.92;;;0.57;;
49812;SDS011;35706;52.100;5.056;2022-09-09T04:22:04;2.03;;;0.50;;
49812;SDS011;35706;52.100;5.056;2022-09-09T04:23:04;5.07;;;0.60;;
49812;SDS011;35706;52.100;5.056;2022-09-09T04:24:05;2.70;;;0.50;;
49812;SDS011;35706;52.100;5.056;2022-09-09T04:25:06;1.98;;;0.50;;
49812;SDS011;35706;52.100;5.056;2022-09-09T04:26:08;3.20;;;0.60;;
49812;SDS011;35706;52.100;5.056;2022-09-09T04:27:08;3.08;;;0.50;;
49812;SDS011;35706;52.100;5.056;2022-09-09T04:28:09;1.98;;;0.50;;
49812;SDS011;35706;52.100;5.056;2022-09-09T04:29:09;4.47;;;0.50;;
49812;SDS011;35706;52.100;5.056;2022-09-09T04:30:09;2.38;;;0.50;;
49812;SDS011;35706;52.100;5.056;2022-09-09T04:31:17;2.38;;;0.45;;
49812;SDS011;35706;52.100;5.056;2022-09-09T04:32:20;2.65;;;0.50;;
49812;SDS011;35706;52.100;5.056;2022-09-09T04:33:21;2.90;;;0.50;;
49812;SDS011;35706;52.100;5.056;2022-09-09T04:34:21;2.60;;;0.50;;
49812;SDS011;35706;52.100;5.056;2022-09-09T04:35:21;3.20;;;0.50;;
49812;SDS011;35706;52.100;5.056;2022-09-09T07:57:36;6.20;;;0.68;;
49812;SDS011;35706;52.100;5.056;2022-09-09T07:58:37;5.65;;;0.60;;
49812;SDS011;35706;52.100;5.056;2022-09-09T07:59:39;6.75;;;0.90;;
49812;SDS011;35706;52.100;5.056;2022-09-09T08:00:39;5.10;;;0.60;;
49812;SDS011;35706;52.100;5.056;2022-09-09T08:01:47;4.63;;;0.60;;
49812;SDS011;35706;52.100;5.056;2022-09-09T08:02:54;5.43;;;0.57;;
49812;SDS011;35706;52.100;5.056;2022-09-09T08:03:55;3.83;;;0.50;;
49812;SDS011;35706;52.100;5.056;2022-09-09T08:05:01;3.47;;;0.50;;
49812;SDS011;35706;52.100;5.056;2022-09-09T08:06:05;6.00;;;0.60;;
49812;SDS011;35706;52.100;5.056;2022-09-09T08:07:07;7.00;;;0.60;;
49812;SDS011;35706;52.100;5.056;2022-09-09T08:08:08;5.28;;;0.80;;
49812;SDS011;35706;52.100;5.056;2022-09-09T08:09:09;8.32;;;0.60;;
49812;SDS011;35706;52.100;5.056;2022-09-09T08:10:10;6.90;;;0.60;;
49812;SDS011;35706;52.100;5.056;2022-09-09T08:11:12;12.60;;;0.77;;
49812;SDS011;35706;52.100;5.056;2022-09-09T08:12:14;2.25;;;0.60;;
49812;SDS011;35706;52.100;5.056;2022-09-09T08:13:15;4.40;;;0.60;;
49812;SDS011;35706;52.100;5.056;2022-09-09T08:14:15;4.95;;;0.50;;
49812;SDS011;35706;52.100;5.056;2022-09-09T08:15:15;5.45;;;0.60;;
49812;SDS011;35706;52.100;5.056;2022-09-09T08:16:20;3.40;;;0.50;;
49812;SDS011;35706;52.100;5.056;2022-09-09T08:17:25;3.50;;;0.50;;
49812;SDS011;35706;52.100;5.056;2022-09-09T08:18:26;7.38;;;0.50;;
49812;SDS011;35706;52.100;5.056;2022-09-09T08:19:27;6.65;;;0.60;;
49812;SDS011;35706;52.100;5.056;2022-09-09T08:20:29;5.70;;;0.50;;
49812;SDS011;35706;52.100;5.056;2022-09-09T08:21:30;7.10;;;0.47;;
49812;SDS011;35706;52.100;5.056;2022-09-09T08:22:33;11.52;;;0.60;;
49812;SDS011;35706;52.100;5.056;2022-09-09T08:23:34;7.68;;;0.50;;
49812;SDS011;35706;52.100;5.056;2022-09-09T08:24:35;3.67;;;0.80;;
49812;SDS011;35706;52.100;5.056;2022-09-09T08:25:35;5.45;;;0.65;;
49812;SDS011;35706;52.100;5.056;2022-09-09T08:26:37;5.07;;;0.47;;
49812;SDS011;35706;52.100;5.056;2022-09-09T08:27:38;6.63;;;0.47;;
49812;SDS011;35706;52.100;5.056;2022-09-09T08:28:39;3.17;;;0.50;;
49812;SDS011;35706;52.100;5.056;2022-09-09T08:29:40;2.15;;;0.40;;
49812;SDS011;35706;52.100;5.056;2022-09-09T08:30:40;6.72;;;0.80;;
49812;SDS011;35706;52.100;5.056;2022-09-09T08:32:45;5.28;;;0.40;;
49812;SDS011;35706;52.100;5.056;2022-09-09T08:33:45;7.03;;;0.70;;
49812;SDS011;35706;52.100;5.056;2022-09-09T08:34:46;5.38;;;0.50;;
49812;SDS011;35706;52.100;5.056;2022-09-09T08:35:49;3.55;;;0.40;;
49812;SDS011;35706;52.100;5.056;2022-09-09T08:36:51;3.78;;;0.40;;
49812;SDS011;35706;52.100;5.056;2022-09-09T08:37:53;9.65;;;0.50;;
49812;SDS011;35706;52.100;5.056;2022-09-09T08:38:55;7.18;;;0.40;;
49812;SDS011;35706;52.100;5.056;2022-09-09T08:39:56;3.80;;;0.47;;
49812;SDS011;35706;52.100;5.056;2022-09-09T08:41:09;2.85;;;0.40;;
49812;SDS011;35706;52.100;5.056;2022-09-09T08:42:35;5.57;;;0.50;;
49812;SDS011;35706;52.100;5.056;2022-09-09T08:43:40;5.45;;;0.50;;
49812;SDS011;35706;52.100;5.056;2022-09-09T08:46:01;8.52;;;0.50;;
49812;SDS011;35706;52.100;5.056;2022-09-09T08:48:52;4.63;;;0.50;;
49812;SDS011;35706;52.100;5.056;2022-09-09T08:50:17;8.77;;;0.50;;
49812;SDS011;35706;52.100;5.056;2022-09-09T08:51:27;7.53;;;0.40;;
49812;SDS011;35706;52.100;5.056;2022-09-09T08:52:38;6.78;;;0.40;;
49812;SDS011;35706;52.100;5.056;2022-09-09T08:53:46;7.03;;;0.57;;
49812;SDS011;35706;52.100;5.056;2022-09-09T08:54:50;6.78;;;0.47;;
49812;SDS011;35706;52.100;5.056;2022-09-09T08:56:55;5.13;;;0.38;;
49812;SDS011;35706;52.100;5.056;2022-09-09T08:57:56;4.00;;;0.40;;
49812;SDS011;35706;52.100;5.056;2022-09-09T08:59:01;5.22;;;0.40;;
49812;SDS011;35706;52.100;5.056;2022-09-09T09:00:03;6.07;;;0.55;;
49812;SDS011;35706;52.100;5.056;2022-09-09T09:04:06;3.03;;;0.40;;
49812;SDS011;35706;52.100;5.056;2022-09-09T09:05:23;8.35;;;0.70;;
49812;SDS011;35706;52.100;5.056;2022-09-09T09:11:12;4.90;;;0.40;;
49812;SDS011;35706;52.100;5.056;2022-09-09T09:12:16;7.10;;;0.40;;
49812;SDS011;35706;52.100;5.056;2022-09-09T09:13:29;4.43;;;0.40;;
49812;SDS011;35706;52.100;5.056;2022-09-09T09:14:31;4.97;;;0.30;;
49812;SDS011;35706;52.100;5.056;2022-09-09T09:15:36;7.15;;;0.40;;
49812;SDS011;35706;52.100;5.056;2022-09-09T09:16:54;4.80;;;0.40;;
49812;SDS011;35706;52.100;5.056;2022-09-09T09:17:58;6.93;;;0.40;;
49812;SDS011;35706;52.100;5.056;2022-09-09T09:18:59;6.35;;;0.35;;
49812;SDS011;35706;52.100;5.056;2022-09-09T09:20:00;3.95;;;0.40;;
49812;SDS011;35706;52.100;5.056;2022-09-09T09:21:06;6.72;;;0.70;;
49812;SDS011;35706;52.100;5.056;2022-09-09T09:22:19;5.07;;;0.55;;
49812;SDS011;35706;52.100;5.056;2022-09-09T09:23:23;12.33;;;0.50;;
49812;SDS011;35706;52.100;5.056;2022-09-09T09:25:44;6.78;;;0.60;;
49812;SDS011;35706;52.100;5.056;2022-09-09T09:26:44;2.75;;;0.40;;
49812;SDS011;35706;52.100;5.056;2022-09-09T09:27:58;4.43;;;0.30;;
49812;SDS011;35706;52.100;5.056;2022-09-09T09:29:01;5.80;;;0.50;;
49812;SDS011;35706;52.100;5.056;2022-09-09T09:30:14;4.88;;;0.47;;
49812;SDS011;35706;52.100;5.056;2022-09-09T09:31:17;6.57;;;0.40;;
49812;SDS011;35706;52.100;5.056;2022-09-09T09:32:19;6.80;;;0.40;;
49812;SDS011;35706;52.100;5.056;2022-09-09T09:33:24;3.42;;;0.45;;
49812;SDS011;35706;52.100;5.056;2022-09-09T09:34:29;6.10;;;0.40;;
49812;SDS011;35706;52.100;5.056;2022-09-09T09:35:29;9.18;;;0.52;;
49812;SDS011;35706;52.100;5.056;2022-09-09T09:36:40;6.53;;;0.70;;
49812;SDS011;35706;52.100;5.056;2022-09-09T09:37:44;4.50;;;0.40;;
49812;SDS011;35706;52.100;5.056;2022-09-09T09:38:56;4.88;;;0.40;;
49812;SDS011;35706;52.100;5.056;2022-09-09T09:40:13;2.80;;;0.35;;
49812;SDS011;35706;52.100;5.056;2022-09-09T09:41:28;5.65;;;0.35;;
49812;SDS011;35706;52.100;5.056;2022-09-09T09:42:30;5.35;;;0.40;;
49812;SDS011;35706;52.100;5.056;2022-09-09T09:43:31;2.50;;;0.40;;
49812;SDS011;35706;52.100;5.056;2022-09-09T09:44:36;6.07;;;0.55;;
49812;SDS011;35706;52.100;5.056;2022-09-09T09:45:43;6.65;;;0.47;;
49812;SDS011;35706;52.100;5.056;2022-09-09T09:46:48;3.47;;;0.40;;
49812;SDS011;35706;52.100;5.056;2022-09-09T09:47:57;6.45;;;0.50;;
49812;SDS011;35706;52.100;5.056;2022-09-09T09:49:03;4.30;;;0.40;;
49812;SDS011;35706;52.100;5.056;2022-09-09T09:50:18;2.08;;;0.32;;
49812;SDS011;35706;52.100;5.056;2022-09-09T09:51:20;8.52;;;0.50;;
49812;SDS011;35706;52.100;5.056;2022-09-09T09:52:32;5.82;;;0.40;;
49812;SDS011;35706;52.100;5.056;2022-09-09T09:53:36;5.90;;;0.50;;
49812;SDS011;35706;52.100;5.056;2022-09-09T09:54:38;6.13;;;0.40;;
49812;SDS011;35706;52.100;5.056;2022-09-09T09:55:44;7.15;;;0.47;;
49812;SDS011;35706;52.100;5.056;2022-09-09T09:56:54;4.10;;;0.60;;
49812;SDS011;35706;52.100;5.056;2022-09-09T09:58:00;8.85;;;0.40;;
49812;SDS011;35706;52.100;5.056;2022-09-09T09:59:02;5.45;;;0.40;;
49812;SDS011;35706;52.100;5.056;2022-09-09T10:00:04;9.52;;;0.40;;
49812;SDS011;35706;52.100;5.056;2022-09-09T10:01:29;8.65;;;0.50;;
49812;SDS011;35706;52.100;5.056;2022-09-09T10:02:42;7.72;;;0.47;;
49812;SDS011;35706;52.100;5.056;2022-09-09T10:03:49;4.28;;;0.30;;
49812;SDS011;35706;52.100;5.056;2022-09-09T10:05:01;6.50;;;0.40;;
49812;SDS011;35706;52.100;5.056;2022-09-09T10:06:02;3.40;;;0.38;;
49812;SDS011;35706;52.100;5.056;2022-09-09T10:07:09;3.50;;;0.30;;
49812;SDS011;35706;52.100;5.056;2022-09-09T10:08:18;8.57;;;0.60;;
49812;SDS011;35706;52.100;5.056;2022-09-09T10:16:35;4.50;;;0.50;;
49812;SDS011;35706;52.100;5.056;2022-09-09T10:20:04;2.65;;;0.40;;
49812;SDS011;35706;52.100;5.056;2022-09-09T10:21:20;4.07;;;0.40;;
49812;SDS011;35706;52.100;5.056;2022-09-09T10:22:27;6.53;;;0.52;;
49812;SDS011;35706;52.100;5.056;2022-09-09T10:25:07;5.03;;;0.50;;
49812;SDS011;35706;52.100;5.056;2022-09-09T10:29:19;8.48;;;0.50;;
49812;SDS011;35706;52.100;5.056;2022-09-09T10:34:52;6.68;;;0.50;;
49812;SDS011;35706;52.100;5.056;2022-09-09T10:36:07;4.55;;;0.40;;
49812;SDS011;35706;52.100;5.056;2022-09-09T10:38:46;2.33;;;0.40;;
49812;SDS011;35706;52.100;5.056;2022-09-09T10:39:48;4.40;;;0.40;;
49812;SDS011;35706;52.100;5.056;2022-09-09T10:41:06;2.30;;;0.40;;
49812;SDS011;35706;52.100;5.056;2022-09-09T10:42:14;4.72;;;0.40;;
49812;SDS011;35706;52.100;5.056;2022-09-09T10:46:01;6.32;;;0.30;;
49812;SDS011;35706;52.100;5.056;2022-09-09T10:47:21;4.10;;;0.30;;
49812;SDS011;35706;52.100;5.056;2022-09-09T10:50:50;5.65;;;0.43;;
49812;SDS011;35706;52.100;5.056;2022-09-09T10:53:40;3.78;;;0.63;;
49812;SDS011;35706;52.100;5.056;2022-09-09T10:54:56;4.90;;;0.50;;
49812;SDS011;35706;52.100;5.056;2022-09-09T10:56:07;3.67;;;0.30;;
49812;SDS011;35706;52.100;5.056;2022-09-09T10:57:15;2.53;;;0.30;;
49812;SDS011;35706;52.100;5.056;2022-09-09T10:58:27;2.40;;;0.30;;
49812;SDS011;35706;52.100;5.056;2022-09-09T10:59:38;5.85;;;0.40;;
49812;SDS011;35706;52.100;5.056;2022-09-09T11:00:49;2.85;;;0.30;;
49812;SDS011;35706;52.100;5.056;2022-09-09T11:01:57;4.20;;;0.30;;
49812;SDS011;35706;52.100;5.056;2022-09-09T11:03:02;2.92;;;0.30;;
49812;SDS011;35706;52.100;5.056;2022-09-09T11:04:25;5.65;;;0.40;;
49812;SDS011;35706;52.100;5.056;2022-09-09T11:06:41;2.58;;;0.30;;
49812;SDS011;35706;52.100;5.056;2022-09-09T11:07:55;1.77;;;0.30;;
49812;SDS011;35706;52.100;5.056;2022-09-09T11:08:59;4.45;;;0.30;;
49812;SDS011;35706;52.100;5.056;2022-09-09T11:10:04;2.53;;;0.30;;
49812;SDS011;35706;52.100;5.056;2022-09-09T11:11:17;3.72;;;0.30;;
49812;SDS011;35706;52.100;5.056;2022-09-09T11:12:26;3.95;;;0.40;;
49812;SDS011;35706;52.100;5.056;2022-09-09T11:14:39;2.60;;;0.30;;
49812;SDS011;35706;52.100;5.056;2022-09-09T11:15:48;3.60;;;0.30;;